Time;durP1;ratioP1;P1;durP2;ratioP2;P2;SDS_P1;SDS_P2;PMS_P1;PMS_P2;Temp;Humidity;BMP_temperature;BMP_pressure;BME280_temperature;BME280_humidity;BME280_pressure;Samples;Min_cycle;Max_cycle;Signal;HPM_P1;HPM_P2
2024/02/19 00:00:12;;;;;;;25.05;4.72;;;;;;;11.08;100.00;102792.38;5282516;27;20487;-76
2024/02/19 00:02:43;;;;;;;26.35;5.43;;;;;;;11.06;100.00;102793.47;5280454;28;20024;-75
2024/02/19 00:05:14;;;;;;;34.13;6.10;;;;;;;11.08;100.00;102778.94;5285456;27;20022;-75
2024/02/19 00:07:46;;;;;;;21.85;4.85;;;;;;;11.10;100.00;102776.16;5284310;28;20024;-75
2024/02/19 00:10:17;;;;;;;26.38;5.43;;;;;;;11.05;100.00;102781.88;5286895;27;20027;-75
2024/02/19 00:12:48;;;;;;;22.67;5.32;;;;;;;10.98;100.00;102767.22;5285696;28;20023;-75
2024/02/19 00:15:18;;;;;;;28.52;5.25;;;;;;;11.06;100.00;102780.91;5283059;27;20011;-75
2024/02/19 00:17:49;;;;;;;21.45;5.43;;;;;;;11.00;100.00;102777.88;5282263;27;20050;-75
2024/02/19 00:20:19;;;;;;;26.35;4.90;;;;;;;10.97;100.00;102780.78;5287024;27;20457;-75
2024/02/19 00:22:51;;;;;;;20.05;5.07;;;;;;;11.00;100.00;102796.66;5282058;27;20023;-75
2024/02/19 00:25:21;;;;;;;27.98;4.72;;;;;;;11.04;100.00;102796.25;5285157;28;20665;-75
2024/02/19 00:27:52;;;;;;;20.80;4.40;;;;;;;11.01;100.00;102799.22;5266064;28;20081;-75
2024/02/19 00:30:22;;;;;;;24.48;4.35;;;;;;;11.09;100.00;102790.53;5283616;28;20027;-76
2024/02/19 00:32:53;;;;;;;20.85;4.85;;;;;;;11.10;100.00;102779.69;5282182;28;20493;-75
2024/02/19 00:35:23;;;;;;;21.98;4.07;;;;;;;11.06;100.00;102780.91;5278756;27;20027;-75
2024/02/19 00:37:54;;;;;;;20.55;4.25;;;;;;;11.10;100.00;102781.53;5283557;27;20027;-76
2024/02/19 00:40:24;;;;;;;22.15;4.47;;;;;;;11.04;100.00;102784.66;5281562;27;20043;-75
2024/02/19 00:42:55;;;;;;;20.10;4.15;;;;;;;11.06;100.00;102780.06;5284755;28;20465;-75
2024/02/19 00:45:25;;;;;;;37.25;4.18;;;;;;;11.04;100.00;102784.66;5287377;28;20107;-75
2024/02/19 00:47:56;;;;;;;23.17;4.38;;;;;;;11.06;100.00;102782.72;5279232;28;20024;-76
2024/02/19 00:50:26;;;;;;;22.42;3.83;;;;;;;11.07;100.00;102776.38;5285801;27;20098;-75
2024/02/19 00:52:57;;;;;;;26.80;4.93;;;;;;;11.06;100.00;102775.53;5278956;28;20024;-75
2024/02/19 00:55:27;;;;;;;17.73;3.70;;;;;;;11.05;100.00;102783.72;5286700;27;20027;-75
2024/02/19 00:57:58;;;;;;;17.48;4.15;;;;;;;11.05;100.00;102799.84;5283024;28;20062;-75
2024/02/19 01:00:28;;;;;;;21.30;4.20;;;;;;;11.06;100.00;102770.16;5283379;28;20099;-76
2024/02/19 01:02:58;;;;;;;20.55;3.63;;;;;;;11.03;100.00;102789.19;5282709;27;20031;-75
2024/02/19 01:05:32;;;;;;;27.45;4.47;;;;;;;11.00;100.00;102784.09;5284246;27;20051;-75
2024/02/19 01:08:02;;;;;;;20.35;4.25;;;;;;;11.00;100.00;102778.72;5284559;27;20024;-75
2024/02/19 01:10:33;;;;;;;26.05;4.65;;;;;;;11.01;100.00;102780.41;5282648;28;20030;-76
2024/02/19 01:13:03;;;;;;;23.75;3.85;;;;;;;11.05;100.00;102781.88;5284346;28;20114;-75
2024/02/19 01:15:34;;;;;;;27.98;4.65;;;;;;;11.06;100.00;102794.34;5279756;27;20019;-75
2024/02/19 01:18:04;;;;;;;26.85;5.20;;;;;;;11.08;100.00;102787.00;5280449;27;20030;-75
2024/02/19 01:20:36;;;;;;;22.70;4.38;;;;;;;11.08;100.00;102787.00;5284696;28;20019;-75
2024/02/19 01:23:06;;;;;;;25.58;4.25;;;;;;;11.06;100.00;102788.09;5279876;28;20667;-75
2024/02/19 01:25:37;;;;;;;26.85;3.97;;;;;;;11.09;100.00;102798.59;5284675;28;20023;-75
2024/02/19 01:28:07;;;;;;;21.90;4.05;;;;;;;11.11;100.00;102796.66;5275683;28;20032;-75
2024/02/19 01:30:38;;;;;;;20.30;5.70;;;;;;;11.11;100.00;102807.41;5282498;28;20408;-75
2024/02/19 01:33:09;;;;;;;26.00;4.47;;;;;;;11.07;100.00;102812.16;5284223;28;20464;-75
2024/02/19 01:35:39;;;;;;;24.80;4.05;;;;;;;11.09;100.00;102807.53;5282126;28;20491;-75
2024/02/19 01:38:11;;;;;;;25.60;4.07;;;;;;;11.11;100.00;102818.16;5281833;28;20492;-75
2024/02/19 01:40:42;;;;;;;18.67;3.78;;;;;;;11.10;100.00;102821.81;5285143;28;20502;-75
2024/02/19 01:43:12;;;;;;;33.70;4.63;;;;;;;11.10;100.00;102824.50;5284790;27;20114;-75
2024/02/19 01:45:43;;;;;;;23.23;4.53;;;;;;;11.07;100.00;102822.91;5283487;27;20053;-75
2024/02/19 01:48:14;;;;;;;26.08;4.57;;;;;;;11.07;100.00;102819.34;5280130;27;20015;-75
2024/02/19 01:50:48;;;;;;;27.05;4.82;;;;;;;11.04;100.00;102817.75;5282855;27;20113;-75
2024/02/19 01:53:19;;;;;;;22.88;4.72;;;;;;;11.05;100.00;102819.50;5280289;27;20023;-75
2024/02/19 01:55:49;;;;;;;27.55;4.45;;;;;;;11.04;100.00;102816.91;5282952;27;20020;-75
2024/02/19 01:58:20;;;;;;;29.58;5.30;;;;;;;11.04;100.00;102811.53;5285274;27;20440;-75
2024/02/19 02:00:51;;;;;;;21.27;4.43;;;;;;;11.03;100.00;102812.50;5280728;27;20065;-75
2024/02/19 02:03:23;;;;;;;28.17;5.28;;;;;;;11.02;100.00;102811.66;5281723;28;20015;-75
2024/02/19 02:05:53;;;;;;;33.58;6.18;;;;;;;10.99;100.00;102805.66;5284545;28;20030;-75
2024/02/19 02:08:24;;;;;;;24.48;4.57;;;;;;;10.97;100.00;102797.75;5283147;28;20019;-75
2024/02/19 02:10:54;;;;;;;21.85;5.38;;;;;;;10.96;100.00;102801.41;5283036;28;20121;-75
2024/02/19 02:13:25;;;;;;;26.08;6.25;;;;;;;10.95;100.00;102807.75;5280740;28;20023;-75
2024/02/19 02:15:55;;;;;;;30.00;5.85;;;;;;;10.94;100.00;102810.53;5281948;27;20047;-75
2024/02/19 02:18:26;;;;;;;25.23;5.53;;;;;;;10.91;100.00;102798.22;5283008;28;20019;-75
2024/02/19 02:20:58;;;;;;;22.67;5.63;;;;;;;10.91;100.00;102790.19;5285404;28;20503;-75
2024/02/19 02:23:29;;;;;;;31.38;6.60;;;;;;;10.91;100.00;102795.53;5278349;28;20076;-75
2024/02/19 02:26:00;;;;;;;33.05;6.90;;;;;;;10.91;100.00;102794.69;5280851;28;20073;-75
2024/02/19 02:28:31;;;;;;;27.38;7.20;;;;;;;10.91;100.00;102798.22;5276636;28;20027;-75
2024/02/19 02:31:01;;;;;;;40.75;7.78;;;;;;;10.91;100.00;102802.75;5272213;28;20094;-75
2024/02/19 02:33:32;;;;;;;33.13;6.45;;;;;;;10.90;100.00;102807.28;5269374;28;20126;-75
2024/02/19 02:36:03;;;;;;;27.67;7.40;;;;;;;10.94;100.00;102802.50;5275455;28;20045;-75
2024/02/19 02:38:34;;;;;;;31.27;7.05;;;;;;;10.93;100.00;102804.31;5283778;28;20031;-75
2024/02/19 02:41:04;;;;;;;29.08;7.10;;;;;;;10.94;100.00;102814.09;5278755;27;20018;-75
2024/02/19 02:43:35;;;;;;;25.10;7.00;;;;;;;10.96;100.00;102814.84;5289612;28;20023;-75
2024/02/19 02:46:05;;;;;;;27.55;7.45;;;;;;;10.98;100.00;102812.03;5288611;27;20511;-75
2024/02/19 02:48:37;;;;;;;25.17;7.70;;;;;;;10.97;100.00;102810.31;5286186;28;20054;-75
2024/02/19 02:51:08;;;;;;;29.33;7.70;;;;;;;10.97;100.00;102805.81;5284052;27;20117;-75
2024/02/19 02:53:38;;;;;;;34.15;8.45;;;;;;;10.97;100.00;102805.81;5288033;27;20377;-75
2024/02/19 02:56:18;;;;;;;34.92;8.13;;;;;;;11.00;100.00;102805.56;5286187;28;20019;-75
2024/02/19 02:58:49;;;;;;;31.08;9.02;;;;;;;10.97;100.00;102803.13;5285931;27;20028;-75
2024/02/19 03:01:28;;;;;;;35.45;7.90;;;;;;;10.96;100.00;102796.03;5284653;28;20465;-75
2024/02/19 03:03:59;;;;;;;30.38;7.63;;;;;;;10.97;100.00;102800.44;5284512;28;20079;-75
2024/02/19 03:06:29;;;;;;;28.73;8.63;;;;;;;10.97;100.00;102800.44;5289224;28;20027;-75
2024/02/19 03:09:00;;;;;;;32.28;7.95;;;;;;;11.00;100.00;102796.66;5284912;27;20023;-75
2024/02/19 03:11:31;;;;;;;33.45;7.53;;;;;;;10.98;100.00;102786.03;5289391;27;20022;-75
2024/02/19 03:14:02;;;;;;;27.45;8.52;;;;;;;10.99;100.00;102797.59;5283419;28;20034;-75
2024/02/19 03:16:33;;;;;;;25.70;7.25;;;;;;;10.99;100.00;102802.97;5278636;27;20131;-75
2024/02/19 03:19:07;;;;;;;30.67;8.93;;;;;;;10.97;100.00;102789.69;5289220;28;20054;-75
2024/02/19 03:21:40;;;;;;;28.17;7.70;;;;;;;10.95;100.00;102793.47;5284337;27;20087;-75
2024/02/19 03:24:11;;;;;;;32.78;7.90;;;;;;;10.96;100.00;102789.81;5291008;28;20019;-75
2024/02/19 03:26:42;;;;;;;42.13;8.65;;;;;;;10.96;100.00;102777.25;5284929;28;20085;-75
2024/02/19 03:29:13;;;;;;;27.98;7.88;;;;;;;10.96;100.00;102777.25;5292693;28;20032;-75
2024/02/19 03:31:44;;;;;;;29.05;7.82;;;;;;;10.96;100.00;102776.38;5287521;28;20118;-75
2024/02/19 03:34:14;;;;;;;28.58;7.68;;;;;;;10.96;100.00;102779.94;5293414;28;20023;-75
2024/02/19 03:36:48;;;;;;;33.30;7.65;;;;;;;10.95;100.00;102775.53;5280007;28;20020;-75
2024/02/19 03:39:19;;;;;;;34.00;8.00;;;;;;;10.95;100.00;102775.53;5284219;28;20040;-75
2024/02/19 03:41:49;;;;;;;39.72;8.07;;;;;;;10.93;100.00;102774.78;5286212;28;20169;-75
2024/02/19 03:44:20;;;;;;;40.65;9.13;;;;;;;10.92;100.00;102775.78;5286305;28;20036;-75
2024/02/19 03:46:50;;;;;;;28.30;8.32;;;;;;;10.91;100.00;102774.06;5284941;28;20515;-75
2024/02/19 03:49:21;;;;;;;33.03;7.72;;;;;;;10.91;100.00;102782.13;5282653;28;20062;-75
2024/02/19 03:51:51;;;;;;;32.08;8.82;;;;;;;10.91;100.00;102784.81;5286928;27;20507;-75
2024/02/19 03:54:22;;;;;;;38.17;8.38;;;;;;;10.89;100.00;102771.50;5283193;28;20055;-75
2024/02/19 03:56:52;;;;;;;35.53;8.00;;;;;;;10.88;100.00;102785.03;5287146;28;20030;-76
2024/02/19 03:59:23;;;;;;;39.25;7.57;;;;;;;10.88;100.00;102788.56;5289557;27;20031;-75
2024/02/19 04:01:53;;;;;;;31.35;7.70;;;;;;;10.91;100.00;102795.53;5286286;27;20114;-75
2024/02/19 04:04:24;;;;;;;32.83;8.48;;;;;;;10.92;100.00;102791.03;5288372;27;20051;-76
2024/02/19 04:06:54;;;;;;;26.38;7.47;;;;;;;10.98;100.00;102796.75;5292402;27;20035;-75
2024/02/19 04:09:25;;;;;;;35.55;8.52;;;;;;;10.95;100.00;102786.28;5287565;27;20631;-75
2024/02/19 04:11:55;;;;;;;25.75;7.95;;;;;;;10.96;100.00;102787.13;5292630;27;20024;-75
2024/02/19 04:14:26;;;;;;;29.25;7.80;;;;;;;10.94;100.00;102789.06;5288729;27;20528;-75
2024/02/19 04:16:56;;;;;;;29.15;8.40;;;;;;;10.92;100.00;102796.41;5283641;27;20020;-75
2024/02/19 04:19:28;;;;;;;33.35;8.30;;;;;;;10.90;100.00;102793.84;5289612;27;20027;-75
2024/02/19 04:21:58;;;;;;;31.83;8.23;;;;;;;10.91;100.00;102794.69;5282296;27;20034;-74
2024/02/19 04:24:29;;;;;;;35.88;8.40;;;;;;;10.85;100.00;102796.88;5284257;27;20028;-74
2024/02/19 04:26:59;;;;;;;32.55;8.70;;;;;;;10.87;100.00;102789.56;5290809;27;20491;-75
2024/02/19 04:29:30;;;;;;;30.58;8.43;;;;;;;10.85;100.00;102793.34;5281768;27;20035;-75
2024/02/19 04:32:00;;;;;;;30.13;7.80;;;;;;;10.88;100.00;102798.47;5288600;27;20457;-74
2024/02/19 04:34:31;;;;;;;34.88;9.10;;;;;;;10.88;100.00;102799.31;5282475;27;20393;-74
2024/02/19 04:37:02;;;;;;;30.75;8.90;;;;;;;10.90;100.00;102799.22;5290828;27;20106;-74
2024/02/19 04:39:32;;;;;;;26.40;7.85;;;;;;;10.93;100.00;102792.72;5287027;27;20110;-75
2024/02/19 04:42:03;;;;;;;34.38;13.30;;;;;;;10.95;100.00;102794.34;5282865;28;20023;-74
2024/02/19 04:44:34;;;;;;;36.67;13.63;;;;;;;10.96;100.00;102796.03;5282697;27;20404;-75
2024/02/19 04:47:05;;;;;;;99.13;43.22;;;;;;;10.98;100.00;102791.38;5289638;27;20031;-74
2024/02/19 04:49:35;;;;;;;100.65;37.85;;;;;;;10.97;100.00;102789.69;5289225;27;20027;-75
2024/02/19 04:52:06;;;;;;;113.50;45.80;;;;;;;10.98;100.00;102798.59;5286265;27;20536;-75
2024/02/19 04:54:36;;;;;;;130.13;56.92;;;;;;;10.96;100.00;102797.88;5286104;27;20094;-75
2024/02/19 04:57:07;;;;;;;113.82;46.00;;;;;;;10.97;100.00;102802.25;5286573;27;20400;-74
2024/02/19 04:59:38;;;;;;;86.90;33.75;;;;;;;10.96;100.00;102804.09;5280385;28;20023;-74
2024/02/19 05:02:08;;;;;;;67.40;29.35;;;;;;;10.95;100.00;102796.16;5273302;28;20093;-74
2024/02/19 05:04:39;;;;;;;69.97;30.27;;;;;;;10.95;100.00;102796.16;5281239;28;20020;-74
2024/02/19 05:07:10;;;;;;;57.38;23.50;;;;;;;10.92;100.00;102786.50;5290262;27;20031;-76
2024/02/19 05:09:40;;;;;;;34.65;12.93;;;;;;;10.93;100.00;102787.34;5268589;28;20027;-75
2024/02/19 05:12:12;;;;;;;32.47;12.38;;;;;;;10.93;100.00;102788.22;5282531;27;20027;-75
2024/02/19 05:14:43;;;;;;;33.33;9.25;;;;;;;10.92;100.00;102794.56;5271992;28;20032;-75
2024/02/19 05:17:14;;;;;;;33.17;9.05;;;;;;;10.93;100.00;102801.63;5283408;27;20049;-75
2024/02/19 05:19:46;;;;;;;24.40;7.25;;;;;;;10.88;100.00;102785.03;5288326;27;20028;-75
2024/02/19 05:22:16;;;;;;;33.97;7.07;;;;;;;10.91;100.00;102800.91;5287124;27;20052;-75
2024/02/19 05:24:47;;;;;;;30.50;6.85;;;;;;;10.89;100.00;102790.31;5282476;28;20442;-75
2024/02/19 05:27:18;;;;;;;25.75;5.80;;;;;;;10.88;100.00;102790.41;5286091;28;20429;-74
2024/02/19 05:29:48;;;;;;;26.65;7.55;;;;;;;10.85;100.00;102788.84;5283937;27;20027;-75
2024/02/19 05:32:19;;;;;;;30.92;7.22;;;;;;;10.91;100.00;102800.91;5285782;27;20019;-76
2024/02/19 05:34:49;;;;;;;31.75;9.20;;;;;;;10.91;100.00;102800.91;5280943;27;20023;-75
2024/02/19 05:37:20;;;;;;;30.58;12.68;;;;;;;10.92;100.00;102802.63;5285107;27;20038;-75
2024/02/19 05:39:51;;;;;;;37.85;9.50;;;;;;;10.84;100.00;102794.31;5284341;28;20404;-75
2024/02/19 05:42:21;;;;;;;32.00;8.02;;;;;;;10.83;100.00;102800.66;5284489;27;20122;-75
2024/02/19 05:44:52;;;;;;;27.55;7.63;;;;;;;10.85;100.00;102794.22;5281960;28;20023;-75
2024/02/19 05:47:22;;;;;;;28.80;8.55;;;;;;;10.91;100.00;102789.31;5283931;27;20068;-75
2024/02/19 05:49:53;;;;;;;45.95;12.35;;;;;;;10.87;100.00;102796.75;5283073;27;20031;-75
2024/02/19 05:52:23;;;;;;;42.72;12.25;;;;;;;10.91;100.00;102797.38;5283987;27;20016;-75
2024/02/19 05:54:56;;;;;;;57.80;18.40;;;;;;;10.82;100.00;102799.81;5286333;27;20016;-75
2024/02/19 05:57:26;;;;;;;44.47;14.82;;;;;;;10.81;100.00;102790.03;5284700;27;20012;-75
2024/02/19 05:59:57;;;;;;;44.72;12.73;;;;;;;10.83;100.00;102797.97;5285268;27;20084;-75
2024/02/19 06:02:27;;;;;;;59.50;21.95;;;;;;;10.83;100.00;102792.59;5289886;27;20016;-75
2024/02/19 06:04:58;;;;;;;58.17;20.77;;;;;;;10.85;100.00;102806.78;5286071;27;20027;-75
2024/02/19 06:07:28;;;;;;;81.30;31.63;;;;;;;10.85;100.00;102804.94;5288996;27;20031;-74
2024/02/19 06:09:59;;;;;;;55.00;21.17;;;;;;;10.91;100.00;102808.97;5285649;27;20357;-75
2024/02/19 06:12:29;;;;;;;49.05;17.00;;;;;;;10.89;100.00;102801.06;5291198;27;20032;-75
2024/02/19 06:15:00;;;;;;;47.83;13.60;;;;;;;10.88;100.00;102802.00;5287916;27;20047;-75
2024/02/19 06:17:30;;;;;;;46.92;13.18;;;;;;;10.88;100.00;102802.00;5284053;27;20028;-75
2024/02/19 06:20:00;;;;;;;39.63;13.25;;;;;;;10.87;100.00;102802.13;5288995;27;20376;-75
2024/02/19 06:22:31;;;;;;;46.35;13.40;;;;;;;10.82;100.00;102807.00;5291810;27;21733;-75
2024/02/19 06:25:01;;;;;;;45.42;13.63;;;;;;;10.83;100.00;102803.34;5283123;27;20020;-75
2024/02/19 06:27:32;;;;;;;44.42;14.32;;;;;;;10.88;100.00;102801.16;5291177;27;20050;-75
2024/02/19 06:30:03;;;;;;;42.25;14.15;;;;;;;10.86;100.00;102800.44;5283054;27;20016;-73
2024/02/19 06:32:34;;;;;;;43.00;12.70;;;;;;;10.88;100.00;102796.63;5286677;28;20031;-75
2024/02/19 06:35:05;;;;;;;38.65;12.32;;;;;;;10.80;100.00;102788.34;5287584;27;20028;-76
2024/02/19 06:37:35;;;;;;;41.05;13.60;;;;;;;10.82;100.00;102783.69;5284540;27;20365;-75
2024/02/19 06:40:06;;;;;;;42.78;13.73;;;;;;;10.84;100.00;102805.94;5288066;27;20012;-75
2024/02/19 06:42:37;;;;;;;49.90;13.95;;;;;;;10.82;100.00;102807.00;5284604;27;20038;-74
2024/02/19 06:45:08;;;;;;;82.72;28.25;;;;;;;10.80;100.00;102808.97;5291323;28;20388;-75
2024/02/19 06:47:40;;;;;;;56.13;21.23;;;;;;;10.84;100.00;102813.09;5286273;28;20529;-75
2024/02/19 06:50:11;;;;;;;49.22;16.88;;;;;;;10.79;100.00;102812.59;5283626;28;20077;-74
2024/02/19 06:52:45;;;;;;;49.35;15.18;;;;;;;10.75;100.00;102813.84;5282535;28;20024;-74
2024/02/19 06:55:16;;;;;;;44.63;13.10;;;;;;;10.74;100.00;102807.59;5288132;28;20025;-75
2024/02/19 06:57:47;;;;;;;38.63;13.65;;;;;;;10.79;100.00;102794.69;5290363;28;20027;-75
2024/02/19 07:00:18;;;;;;;54.33;14.63;;;;;;;10.80;100.00;102804.44;5283598;28;20016;-75
2024/02/19 07:02:48;;;;;;;52.97;13.15;;;;;;;10.76;100.00;102802.97;5287586;27;20026;-74
2024/02/19 07:05:19;;;;;;;52.80;14.93;;;;;;;10.78;100.00;102805.53;5285515;28;20050;-75
2024/02/19 07:07:50;;;;;;;39.33;14.07;;;;;;;10.74;100.00;102798.69;5286509;28;20094;-75
2024/02/19 07:10:20;;;;;;;178.70;82.15;;;;;;;10.77;100.00;102795.78;5287739;28;20027;-75
2024/02/19 07:12:51;;;;;;;90.03;44.25;;;;;;;10.78;100.00;102789.41;5283790;27;20024;-75
2024/02/19 07:15:21;;;;;;;48.60;15.55;;;;;;;10.82;100.00;102796.25;5286545;28;20012;-74
2024/02/19 07:17:52;;;;;;;45.70;13.98;;;;;;;10.85;100.00;102782.63;5284330;27;20020;-75
2024/02/19 07:20:22;;;;;;;40.55;13.82;;;;;;;10.84;100.00;102788.94;5285231;28;20098;-75
2024/02/19 07:22:53;;;;;;;45.65;15.30;;;;;;;10.83;100.00;102788.09;5288648;27;20030;-75
2024/02/19 07:25:23;;;;;;;50.20;17.70;;;;;;;10.87;100.00;102799.44;5266721;28;20023;-74
2024/02/19 07:27:53;;;;;;;52.42;14.70;;;;;;;10.87;100.00;102794.94;5289793;27;20105;-74
2024/02/19 07:30:24;;;;;;;40.78;15.10;;;;;;;10.85;100.00;102799.56;5289801;27;20030;-75
2024/02/19 07:32:54;;;;;;;45.47;18.48;;;;;;;10.89;100.00;102792.09;5290354;27;20732;-75
2024/02/19 07:35:25;;;;;;;43.13;15.60;;;;;;;10.91;100.00;102786.63;5289036;27;20023;-75
2024/02/19 07:37:57;;;;;;;43.22;15.48;;;;;;;10.96;100.00;102782.59;5287778;27;20103;-74
2024/02/19 07:40:27;;;;;;;54.22;13.88;;;;;;;10.98;100.00;102767.22;5287056;27;20055;-74
2024/02/19 07:42:57;;;;;;;42.45;14.57;;;;;;;10.97;100.00;102761.97;5285734;27;20119;-75
2024/02/19 07:45:28;;;;;;;41.80;13.52;;;;;;;10.92;100.00;102759.66;5290773;27;20032;-74
2024/02/19 07:48:00;;;;;;;59.00;14.57;;;;;;;11.00;100.00;102751.84;5290005;27;20697;-74
2024/02/19 07:50:30;;;;;;;41.13;13.70;;;;;;;11.07;100.00;102745.00;5289413;27;20027;-75
2024/02/19 07:53:01;;;;;;;43.38;12.15;;;;;;;11.10;100.00;102751.97;5288032;27;20020;-74
2024/02/19 07:55:32;;;;;;;37.90;12.48;;;;;;;11.31;100.00;102765.50;5278892;27;20069;-74
2024/02/19 07:58:02;;;;;;;47.88;15.50;;;;;;;11.78;100.00;102769.66;5283409;27;20019;-75
2024/02/19 08:00:33;;;;;;;31.42;11.30;;;;;;;12.10;100.00;102767.00;5288546;27;20057;-75
2024/02/19 08:03:03;;;;;;;30.52;11.05;;;;;;;12.18;100.00;102777.09;5284302;27;20023;-76
2024/02/19 08:05:34;;;;;;;26.88;9.35;;;;;;;12.06;100.00;102775.47;5285075;27;20077;-76
2024/02/19 08:08:04;;;;;;;34.33;11.82;;;;;;;11.92;100.00;102769.38;5286372;27;20020;-75
2024/02/19 08:10:35;;;;;;;33.22;11.40;;;;;;;11.74;100.00;102745.81;5289220;27;20031;-76
2024/02/19 08:13:08;;;;;;;38.92;11.38;;;;;;;11.66;100.00;102754.53;5284124;27;20023;-75
2024/02/19 08:15:44;;;;;;;40.15;12.65;;;;;;;11.75;100.00;102761.00;5285492;27;20030;-74
2024/02/19 08:18:15;;;;;;;38.15;12.15;;;;;;;11.82;100.00;102748.78;5278521;27;20776;-75
2024/02/19 08:20:45;;;;;;;32.70;11.15;;;;;;;12.03;100.00;102751.50;5285517;27;20047;-75
2024/02/19 08:23:15;;;;;;;35.65;10.77;;;;;;;12.48;100.00;102760.16;5285513;27;20012;-75
2024/02/19 08:25:47;;;;;;;31.60;10.40;;;;;;;12.91;100.00;102759.13;5285538;27;20026;-74
2024/02/19 08:28:18;;;;;;;30.70;10.30;;;;;;;12.94;100.00;102748.06;5284474;27;20045;-75
2024/02/19 08:30:48;;;;;;;30.80;10.13;;;;;;;12.90;100.00;102743.94;5286068;28;20034;-75
2024/02/19 08:33:19;;;;;;;26.38;10.32;;;;;;;13.15;100.00;102756.97;5286149;27;20102;-75
2024/02/19 08:35:50;;;;;;;29.20;9.55;;;;;;;13.66;100.00;102784.78;5289904;27;20023;-74
2024/02/19 08:38:21;;;;;;;25.45;9.40;;;;;;;13.90;100.00;102801.41;5286682;27;20046;-75
2024/02/19 08:40:51;;;;;;;32.30;9.68;;;;;;;13.94;100.00;102805.53;5285988;27;20011;-75
2024/02/19 08:43:22;;;;;;;26.02;9.32;;;;;;;13.61;100.00;102804.09;5284333;28;20032;-75
2024/02/19 08:45:53;;;;;;;33.20;11.52;;;;;;;13.55;100.00;102815.41;5283789;27;20024;-75
2024/02/19 08:48:23;;;;;;;27.75;10.32;;;;;;;13.30;100.00;102819.44;5284023;28;20145;-75
2024/02/19 08:50:53;;;;;;;31.38;11.48;;;;;;;12.94;100.00;102828.88;5262563;28;20027;-76
2024/02/19 08:53:24;;;;;;;32.88;13.45;;;;;;;12.67;100.00;102827.59;5286108;27;20020;-75
2024/02/19 08:55:55;;;;;;;33.45;11.85;;;;;;;12.51;100.00;102832.59;5283789;28;20015;-75
2024/02/19 08:58:25;;;;;;;32.20;12.30;;;;;;;12.49;100.00;102822.94;5286192;27;20054;-74
2024/02/19 09:00:57;;;;;;;26.92;12.45;;;;;;;12.46;100.00;102824.06;5281506;27;20464;-74
2024/02/19 09:03:27;;;;;;;31.75;11.80;;;;;;;12.38;100.00;102823.84;5281856;27;20027;-74
2024/02/19 09:05:58;;;;;;;28.80;10.57;;;;;;;12.31;100.00;102833.44;5284652;27;20142;-74
2024/02/19 09:08:28;;;;;;;27.05;9.88;;;;;;;12.30;100.00;102827.22;5286562;27;20023;-74
2024/02/19 09:10:59;;;;;;;34.10;13.00;;;;;;;12.22;100.00;102823.44;5287632;27;20035;-74
2024/02/19 09:13:33;;;;;;;34.33;13.57;;;;;;;12.21;100.00;102827.13;5279833;27;20031;-74
2024/02/19 09:16:05;;;;;;;;;;;;;;;12.12;100.00;102818.84;5282029;28;20015;-74
2024/02/19 09:18:35;;;;;;;41.92;19.42;;;;;;;12.10;100.00;102815.44;5281968;28;19907;-74
2024/02/19 09:21:06;;;;;;;43.85;18.55;;;;;;;12.08;100.00;102816.53;5281497;27;20008;-74
2024/02/19 09:23:37;;;;;;;35.45;12.75;;;;;;;11.97;100.00;102830.88;5284345;27;20110;-74
2024/02/19 09:26:13;;;;;;;39.65;16.27;;;;;;;12.00;100.00;102827.06;5281197;28;20122;-74
2024/02/19 09:28:44;;;;;;;30.35;13.27;;;;;;;12.07;100.00;102825.59;5284782;27;20369;-74
2024/02/19 09:31:15;;;;;;;31.15;12.55;;;;;;;12.19;100.00;102820.00;5282444;28;20019;-74
2024/02/19 09:33:45;;;;;;;24.38;10.98;;;;;;;12.27;100.00;102814.00;5281947;28;20020;-74
2024/02/19 09:36:16;;;;;;;31.08;10.68;;;;;;;12.26;100.00;102816.84;5280073;28;20016;-75
2024/02/19 09:38:47;;;;;;;33.97;11.07;;;;;;;12.37;100.00;102823.00;5286932;27;20108;-75
2024/02/19 09:41:18;;;;;;;35.17;9.55;;;;;;;12.38;100.00;102821.16;5281964;28;20477;-75
2024/02/19 09:43:51;;;;;;;27.02;9.02;;;;;;;12.30;100.00;102819.13;5283983;28;20030;-75
2024/02/19 09:46:22;;;;;;;28.98;9.63;;;;;;;12.40;100.00;102819.22;5281970;28;20027;-75
2024/02/19 09:48:56;;;;;;;35.60;12.68;;;;;;;12.39;100.00;102821.03;5279292;28;20023;-75
2024/02/19 09:51:28;;;;;;;29.17;11.13;;;;;;;12.43;100.00;102813.53;5283362;28;20016;-75
2024/02/19 09:54:00;;;;;;;31.42;10.75;;;;;;;12.44;100.00;102824.19;5280421;28;20027;-75
2024/02/19 09:56:31;;;;;;;31.52;8.48;;;;;;;12.46;100.00;102821.38;5279715;28;20424;-75
2024/02/19 09:59:05;;;;;;;26.55;10.05;;;;;;;12.37;100.00;102814.94;5273690;28;20518;-75
2024/02/19 10:01:35;;;;;;;21.42;9.70;;;;;;;12.40;100.00;102822.75;5282079;27;20104;-75
2024/02/19 10:04:05;;;;;;;29.02;8.90;;;;;;;12.37;100.00;102814.06;5279232;27;20015;-75
2024/02/19 10:06:36;;;;;;;23.52;8.50;;;;;;;12.52;100.00;102823.53;5277741;27;20094;-75
2024/02/19 10:09:07;;;;;;;23.33;8.73;;;;;;;12.50;100.00;102814.75;5285131;27;20016;-75
2024/02/19 10:11:38;;;;;;;29.77;9.15;;;;;;;12.56;100.00;102811.53;5281536;28;20015;-75
2024/02/19 10:14:10;;;;;;;26.73;9.30;;;;;;;12.58;100.00;102812.25;5279412;28;20384;-75
2024/02/19 10:16:48;;;;;;;34.90;10.02;;;;;;;12.49;100.00;102809.47;5285939;27;20089;-75
2024/02/19 10:19:19;;;;;;;28.65;10.48;;;;;;;12.42;100.00;102804.63;5286124;27;20015;-75
2024/02/19 10:21:50;;;;;;;25.80;10.95;;;;;;;12.51;100.00;102815.59;5283767;27;20027;-75
2024/02/19 10:24:20;;;;;;;25.75;10.18;;;;;;;12.52;100.00;102815.47;5283442;27;20279;-75
2024/02/19 10:26:51;;;;;;;30.33;13.63;;;;;;;12.43;100.00;102810.84;5276533;27;20057;-74
2024/02/19 10:29:25;;;;;;;30.58;11.88;;;;;;;12.34;100.00;102803.56;5282870;27;20370;-75
2024/02/19 10:31:55;;;;;;;40.17;13.60;;;;;;;12.26;100.00;102803.38;5282392;28;20063;-75
2024/02/19 10:34:26;;;;;;;30.77;12.13;;;;;;;12.28;100.00;102804.09;5279672;28;20099;-75
2024/02/19 10:36:56;;;;;;;35.80;13.82;;;;;;;12.31;100.00;102806.53;5284499;28;20487;-75
2024/02/19 10:39:27;;;;;;;31.90;13.98;;;;;;;12.21;100.00;102805.59;5280509;27;20393;-75
2024/02/19 10:41:58;;;;;;;34.28;13.27;;;;;;;12.04;100.00;102812.38;5283465;28;20015;-75
2024/02/19 10:44:29;;;;;;;34.15;14.23;;;;;;;11.92;100.00;102807.03;5283969;28;20096;-75
2024/02/19 10:47:01;;;;;;;35.70;13.90;;;;;;;11.89;100.00;102801.91;5285487;28;20056;-75
2024/02/19 10:49:31;;;;;;;36.88;13.73;;;;;;;11.93;100.00;102794.44;5283286;28;20028;-75
2024/02/19 10:52:04;;;;;;;34.17;14.25;;;;;;;12.12;100.00;102797.31;5284568;28;20020;-75
2024/02/19 10:54:35;;;;;;;38.03;14.52;;;;;;;12.14;100.00;102778.34;5286750;28;20023;-75
2024/02/19 10:57:08;;;;;;;34.70;13.88;;;;;;;12.16;100.00;102789.84;5279791;27;20012;-75
2024/02/19 10:59:39;;;;;;;41.28;16.48;;;;;;;12.27;100.00;102797.00;5279337;28;20023;-75
2024/02/19 11:02:11;;;;;;;35.60;15.65;;;;;;;12.07;100.00;102791.47;5279814;28;20020;-75
2024/02/19 11:04:41;;;;;;;37.10;14.90;;;;;;;11.79;100.00;102783.94;5285984;27;20114;-74
2024/02/19 11:07:12;;;;;;;36.03;15.40;;;;;;;11.78;100.00;102784.94;5288969;27;20106;-74
2024/02/19 11:09:43;;;;;;;38.58;15.35;;;;;;;11.70;100.00;102779.31;5290342;27;20030;-74
2024/02/19 11:12:13;;;;;;;34.88;15.57;;;;;;;11.60;100.00;102774.72;5284999;27;20481;-74
2024/02/19 11:14:45;;;;;;;43.13;16.38;;;;;;;11.58;100.00;102781.19;5282930;27;20422;-74
2024/02/19 11:17:17;;;;;;;41.42;17.13;;;;;;;11.59;100.00;102772.16;5282109;27;20027;-74
2024/02/19 11:19:48;;;;;;;49.97;21.98;;;;;;;11.55;100.00;102773.41;5281643;27;20027;-74
2024/02/19 11:22:29;;;;;;;41.42;17.75;;;;;;;11.50;100.00;102764.84;5290071;27;20046;-74